METAR Data
IDs: Format: Raw Decoded Include TAF

Data at: 1411 UTC 10 Aug 2022

KAJO 101356Z AUTO 00000KT 10SM CLR 20/15 A3001 RMK AO2 SLP154 T02000150
KAJO 101256Z AUTO 00000KT 10SM CLR 19/14 A2998 RMK AO2 SLP146 T01890144
KAJO 101156Z AUTO 00000KT 10SM CLR 19/14 A2997 RMK AO2 SLP142 7//// T01890144 10244 20189 58005
KAJO 101056Z AUTO 04003KT 10SM CLR 19/14 A2998 RMK AO2 SLP145 T01890144
KAJO 100956Z AUTO 00000KT 10SM CLR 20/15 A2998 RMK AO2 SLP144 T02000150
KAJO 100856Z AUTO 00000KT 10SM CLR 21/15 A2999 RMK AO2 SLP146 T02060150
KAJO 100756Z AUTO 00000KT 10SM CLR 22/15 RMK AO2 SLPNO T02170150 403670194 $
KAJO 100656Z AUTO 27004KT 10SM CLR 23/15 A2999 RMK AO2 SLP147 T02330150
KAJO 100556Z AUTO 27005KT 10SM CLR 24/14 A2998 RMK AO2 SLP144 6//// T02440139 10350 20244 51026
KAJO 100456Z AUTO 28004KT 10SM CLR 25/14 A2997 RMK AO2 SLP140 T02500139
KAJO 100356Z AUTO 26008G15KT 10SM CLR 27/13 A2993 RMK AO2 SLP127 T02670133
KAJO 100256Z AUTO 29011KT 10SM CLR 29/12 A2990 RMK AO2 SLP118 6//// T02890122 53012
KAJO 100156Z AUTO 29010KT 10SM CLR 31/11 A2988 RMK AO2 SLP110 T03060111
KAJO 100056Z AUTO 29015KT 10SM CLR 34/11 A2986 RMK AO2 SLP105 T03390106
KAJO 092356Z AUTO 29016KT 10SM CLR 35/10 A2987 RMK AO2 SLP106 T03500100 10367 20317 55013
KAJO 092256Z AUTO 27014G20KT 10SM CLR 36/12 A2986 RMK AO2 SLP104 T03560117
KAJO 092156Z AUTO 26009G18KT 10SM CLR 36/16 A2988 RMK AO2 SLP110 T03610161
KAJO 092056Z AUTO 27012G19KT 10SM CLR 36/17 A2990 RMK AO2 SLP118 T03560167 56019
KAJO 091956Z AUTO 28010KT 10SM CLR 36/13 A2992 RMK AO2 SLP122 T03610133
KAJO 091856Z AUTO 00000KT 10SM CLR 34/12 A2994 RMK AO2 SLP130 T03440117
KAJO 091756Z AUTO VRB03KT 10SM CLR 32/13 A2996 RMK AO2 SLP137 6//// T03170128 10317 20194 58000
KAJO 091656Z AUTO 00000KT 10SM CLR 30/14 A2997 RMK AO2 SLP140 T03000139
KAJO 091556Z AUTO 10SM CLR 25/16 A2997 RMK AO2 SLP140 T02500161
KAJO 091456Z AUTO VRB03KT 10SM CLR 24/16 A2996 RMK AO2 SLP137 T02390156 53013
KAJO 091356Z AUTO 00000KT 10SM CLR 20/16 A2994 RMK AO2 SLP132 T02000156
KAJO 091256Z AUTO 00000KT 10SM CLR 20/16 A2993 RMK AO2 SLP126 T02000161
KAJO 091156Z AUTO 00000KT 10SM CLR 20/16 A2992 RMK AO2 SLP125 7//// T02000161 10244 20200 55002
KAJO 091056Z AUTO 00000KT 10SM CLR 21/17 A2992 RMK AO2 SLP123 T02110167
KAJO 090956Z AUTO 00000KT 10SM CLR 22/17 A2992 RMK AO2 SLP125 T02220167
KAJO 090856Z AUTO 27003KT 10SM CLR 23/17 A2993 RMK AO2 SLP126 T02330172 58005
KAJO 090756Z AUTO 25005KT 10SM CLR 23/17 A2994 RMK AO2 SLP131 T02330172 403500200
KAJO 090656Z AUTO 26006KT 10SM CLR 24/17 A2995 RMK AO2 SLP134 T02390167
KAJO 090556Z AUTO 31004KT 10SM CLR 24/16 A2994 RMK AO2 SLP132 6//// T02440161 10333 20244 51018
KAJO 090456Z AUTO 29006KT 10SM CLR 25/16 A2994 RMK AO2 SLP129 T02500156
KAJO 090356Z AUTO 28008KT 10SM CLR 27/16 A2991 RMK AO2 SLP121 T02670156
KAJO 090256Z AUTO 10SM CLR 28/14 A2989 RMK AO2 SLP112 6//// T02830144 53010